Time;durP1;ratioP1;P1;durP2;ratioP2;P2;SDS_P1;SDS_P2;PMS_P1;PMS_P2;Temp;Humidity;BMP_temperature;BMP_pressure;BME280_temperature;BME280_humidity;BME280_pressure;Samples;Min_cycle;Max_cycle;Signal;HPM_P1;HPM_P2
2022/12/16 00:00:08;;;;;;;49.43;24.93;;;;;;;0.56;91.17;95012.02;1744187;82;21026;-68
2022/12/16 00:02:37;;;;;;;54.97;25.47;;;;;;;0.47;91.24;95014.06;1744303;82;21007;-68
2022/12/16 00:05:05;;;;;;;42.70;23.27;;;;;;;0.44;91.12;95006.26;1743899;82;21324;-68
2022/12/16 00:07:31;;;;;;;37.63;21.17;;;;;;;0.47;91.30;94995.04;1744186;82;21071;-68
2022/12/16 00:09:58;;;;;;;39.70;21.00;;;;;;;0.50;91.33;95002.41;1744144;81;21022;-69
2022/12/16 00:12:24;;;;;;;47.30;23.70;;;;;;;0.50;91.42;94998.95;1744273;82;21546;-69
2022/12/16 00:14:51;;;;;;;49.77;24.23;;;;;;;0.55;91.54;94994.68;1744479;82;21015;-69
2022/12/16 00:17:18;;;;;;;49.87;24.83;;;;;;;0.60;91.46;94992.56;1743863;82;21015;-69
2022/12/16 00:19:44;;;;;;;42.30;22.30;;;;;;;0.57;91.25;94986.05;1744171;81;21026;-69
2022/12/16 00:22:11;;;;;;;36.57;19.93;;;;;;;0.58;90.95;94991.70;1744361;82;21039;-68
2022/12/16 00:24:38;;;;;;;31.23;17.37;;;;;;;0.58;90.93;94985.61;1743755;82;21067;-68
2022/12/16 00:27:04;;;;;;;33.23;18.13;;;;;;;0.60;91.04;94976.98;1744409;82;21038;-68
2022/12/16 00:29:31;;;;;;;31.23;16.90;;;;;;;0.64;91.57;94970.12;1744255;82;21157;-68
2022/12/16 00:31:57;;;;;;;36.77;18.17;;;;;;;0.70;91.44;94967.56;1744165;82;21011;-68
2022/12/16 00:34:24;;;;;;;33.10;17.33;;;;;;;0.71;91.22;94981.01;1744279;81;21004;-68
2022/12/16 00:36:51;;;;;;;29.23;16.17;;;;;;;0.70;91.02;94984.44;1744210;82;20991;-68
2022/12/16 00:39:18;;;;;;;30.37;15.50;;;;;;;0.73;91.12;94980.60;1743713;82;21028;-68
2022/12/16 00:41:46;;;;;;;23.53;15.10;;;;;;;0.74;91.36;94979.73;1743880;81;21027;-68
2022/12/16 00:44:13;;;;;;;20.60;12.60;;;;;;;0.78;91.40;94969.83;1744217;82;20996;-68
2022/12/16 00:46:40;;;;;;;37.07;18.60;;;;;;;0.85;91.45;94976.78;1750603;82;21059;-68
2022/12/16 00:49:07;;;;;;;45.77;23.03;;;;;;;0.88;91.51;94972.05;1752089;81;20999;-69
2022/12/16 00:51:34;;;;;;;48.47;25.00;;;;;;;0.92;91.29;94965.17;1751995;82;21621;-69
2022/12/16 00:54:01;;;;;;;32.23;19.53;;;;;;;0.86;90.84;94961.66;1752419;81;21027;-69
2022/12/16 00:56:27;;;;;;;30.63;17.93;;;;;;;0.82;90.42;94952.09;1752154;82;21027;-69
2022/12/16 00:58:54;;;;;;;38.60;19.73;;;;;;;0.75;90.64;94945.11;1752132;81;21493;-69
2022/12/16 01:01:21;;;;;;;30.20;17.03;;;;;;;0.75;90.52;94949.00;1752453;81;21031;-69
2022/12/16 01:03:48;;;;;;;24.73;14.57;;;;;;;0.74;91.13;94954.20;1752074;81;21058;-69
2022/12/16 01:06:16;;;;;;;27.07;15.33;;;;;;;0.79;91.12;94948.62;1752023;82;21526;-69
2022/12/16 01:08:49;;;;;;;24.17;14.27;;;;;;;0.79;91.62;94942.98;1752358;82;21002;-68
2022/12/16 01:11:18;;;;;;;30.52;17.23;;;;;;;0.81;91.42;94933.92;1752242;82;21537;-68
2022/12/16 01:13:48;;;;;;;23.50;14.30;;;;;;;0.82;91.28;94933.92;1752306;82;21003;-68
2022/12/16 01:16:14;;;;;;;31.63;18.00;;;;;;;0.87;91.41;94932.66;1752295;82;21070;-68
2022/12/16 01:18:41;;;;;;;40.33;21.50;;;;;;;0.91;91.38;94924.45;1752531;81;21047;-68
2022/12/16 01:21:11;;;;;;;39.00;21.90;;;;;;;0.96;91.37;94907.17;1752315;81;21055;-68
2022/12/16 01:23:37;;;;;;;42.93;24.67;;;;;;;0.94;91.09;94921.47;1752491;81;21003;-68
2022/12/16 01:26:05;;;;;;;31.63;18.77;;;;;;;0.89;91.13;94902.81;1752370;81;21090;-68
2022/12/16 01:28:31;;;;;;;24.97;14.30;;;;;;;0.88;90.78;94906.25;1752270;81;21550;-68
2022/12/16 01:31:00;;;;;;;32.30;18.73;;;;;;;0.91;91.00;94914.06;1752516;81;21056;-68
2022/12/16 01:33:31;;;;;;;28.33;15.73;;;;;;;0.94;91.76;94898.09;1752350;81;20976;-68
2022/12/16 01:36:03;;;;;;;35.87;19.43;;;;;;;0.98;91.47;94893.37;1752436;81;21054;-69
2022/12/16 01:38:30;;;;;;;36.13;20.10;;;;;;;1.00;91.36;94907.20;1752364;81;20976;-68
2022/12/16 01:40:57;;;;;;;39.43;21.30;;;;;;;1.03;91.19;94908.55;1752284;81;21030;-69
2022/12/16 01:43:28;;;;;;;38.90;20.43;;;;;;;0.98;91.20;94903.76;1752319;82;21023;-69
2022/12/16 01:46:06;;;;;;;34.50;19.40;;;;;;;0.94;91.31;94901.13;1748741;82;21079;-69
2022/12/16 01:48:46;;;;;;;44.40;23.40;;;;;;;0.86;91.67;94895.44;1744296;81;21080;-68
2022/12/16 01:51:24;;;;;;;36.10;20.63;;;;;;;0.88;91.53;94881.58;1744173;82;20971;-68
2022/12/16 01:53:56;;;;;;;43.93;24.00;;;;;;;0.91;91.38;94881.59;1743837;82;21094;-68
2022/12/16 01:56:27;;;;;;;44.17;24.43;;;;;;;0.91;91.31;94876.40;1743913;82;21493;-68
2022/12/16 01:58:54;;;;;;;48.50;27.27;;;;;;;0.95;91.25;94869.08;1744210;82;21028;-68
2022/12/16 02:01:22;;;;;;;43.83;24.50;;;;;;;0.96;91.12;94849.63;1743785;82;21641;-68
2022/12/16 02:03:51;;;;;;;37.13;22.07;;;;;;;0.98;91.26;94837.52;1743958;82;21439;-68
2022/12/16 02:06:18;;;;;;;35.07;22.00;;;;;;;1.01;91.10;94825.84;1744081;82;21028;-68
2022/12/16 02:08:44;;;;;;;29.57;17.13;;;;;;;1.00;91.27;94834.91;1743898;82;21051;-69
2022/12/16 02:11:53;;;;;;;24.73;15.63;;;;;;;0.99;91.21;94828.86;1744114;82;21509;-68
2022/12/16 02:15:05;;;;;;;27.77;16.77;;;;;;;1.04;91.56;94852.27;1743932;82;21028;-69
2022/12/16 02:17:55;;;;;;;29.33;16.63;;;;;;;1.08;91.57;94860.50;1744058;82;21044;-68
2022/12/16 02:20:50;;;;;;;46.60;25.47;;;;;;;1.16;91.81;94860.54;1744161;82;21036;-68
2022/12/16 02:23:49;;;;;;;40.33;23.23;;;;;;;1.12;91.62;94855.77;1743144;82;21525;-68
2022/12/16 02:26:33;;;;;;;35.30;19.70;;;;;;;1.11;91.57;94838.45;1742999;82;21039;-67
2022/12/16 02:29:20;;;;;;;44.93;26.53;;;;;;;1.15;91.57;94846.69;1743235;82;21027;-67
2022/12/16 02:32:01;;;;;;;37.33;21.07;;;;;;;1.16;91.57;94831.55;1743886;82;20992;-68
2022/12/16 02:35:04;;;;;;;29.43;16.80;;;;;;;1.19;91.30;94853.65;1743060;82;21036;-68
2022/12/16 02:38:02;;;;;;;35.27;20.23;;;;;;;1.21;91.21;94877.02;1744154;82;21082;-68
2022/12/16 02:40:39;;;;;;;25.77;15.37;;;;;;;1.23;91.57;94882.66;1743430;82;21039;-68
2022/12/16 02:43:29;;;;;;;33.73;18.60;;;;;;;1.27;91.32;94875.77;1743423;82;21016;-68
2022/12/16 02:45:56;;;;;;;57.07;30.33;;;;;;;1.28;91.47;94880.96;1745315;82;21019;-68
2022/12/16 02:48:23;;;;;;;65.73;34.57;;;;;;;1.19;91.62;94877.47;1752430;81;21019;-68
2022/12/16 02:50:51;;;;;;;61.73;32.53;;;;;;;1.16;91.68;94878.73;1752231;82;21007;-68
2022/12/16 02:53:19;;;;;;;59.27;32.80;;;;;;;1.15;91.67;94888.69;1752480;81;21608;-68
2022/12/16 02:56:25;;;;;;;44.77;24.23;;;;;;;1.15;91.64;94858.81;1751979;82;21022;-68
2022/12/16 02:59:26;;;;;;;49.87;28.43;;;;;;;1.15;91.43;94868.77;1746190;82;21545;-67
2022/12/16 03:02:14;;;;;;;52.37;29.60;;;;;;;1.08;91.88;94863.09;1752938;82;21015;-68
2022/12/16 03:04:58;;;;;;;71.63;36.30;;;;;;;1.08;92.09;94851.41;1752165;82;21023;-67
2022/12/16 03:07:28;;;;;;;83.93;46.20;;;;;;;1.10;91.90;94842.33;1746429;82;21043;-67
2022/12/16 03:09:57;;;;;;;52.60;28.00;;;;;;;1.11;92.00;94821.57;1752251;82;21066;-67
2022/12/16 03:12:24;;;;;;;51.83;24.67;;;;;;;1.13;92.18;94816.36;1752183;82;21125;-67
2022/12/16 03:14:54;;;;;;;32.60;17.53;;;;;;;1.16;92.11;94808.58;1752459;81;21500;-68
2022/12/16 03:17:24;;;;;;;47.40;24.80;;;;;;;1.23;92.23;94809.05;1752509;81;21501;-68
2022/12/16 03:20:09;;;;;;;42.90;23.90;;;;;;;1.25;92.46;94794.34;1752450;82;21011;-68
2022/12/16 03:22:40;;;;;;;69.07;37.67;;;;;;;1.24;92.49;94803.01;1752106;82;21084;-68
2022/12/16 03:25:07;;;;;;;41.67;24.90;;;;;;;1.26;92.40;94790.45;1752399;81;20987;-68
2022/12/16 03:27:48;;;;;;;53.93;30.17;;;;;;;1.20;92.79;94773.95;1752203;82;21488;-68
2022/12/16 03:30:26;;;;;;;50.00;27.60;;;;;;;1.21;92.90;94773.98;1752573;81;20986;-68
2022/12/16 03:33:04;;;;;;;45.50;26.30;;;;;;;1.20;93.01;94781.31;1751249;81;21524;-69
2022/12/16 03:35:49;;;;;;;46.27;23.97;;;;;;;1.23;92.76;94770.06;1752568;81;21011;-68
2022/12/16 03:38:18;;;;;;;40.83;23.27;;;;;;;1.26;92.98;94777.46;1752522;81;21018;-68
2022/12/16 03:40:45;;;;;;;35.87;22.73;;;;;;;1.32;92.83;94775.31;1752338;81;21477;-68
2022/12/16 03:43:14;;;;;;;33.00;18.77;;;;;;;1.35;92.93;94765.36;1722735;82;21022;-68
2022/12/16 03:45:44;;;;;;;36.67;21.07;;;;;;;1.37;93.05;94771.44;1752351;81;21050;-68
2022/12/16 03:48:13;;;;;;;39.13;22.80;;;;;;;1.41;92.98;94771.86;1752369;82;21007;-68
2022/12/16 03:50:39;;;;;;;37.17;20.57;;;;;;;1.46;92.83;94763.64;1752677;81;20963;-67
2022/12/16 03:53:08;;;;;;;38.10;21.03;;;;;;;1.48;92.72;94774.92;1752495;81;21491;-67
2022/12/16 03:55:34;;;;;;;36.23;20.87;;;;;;;1.53;92.76;94766.70;1752253;81;21532;-68
2022/12/16 03:58:01;;;;;;;27.93;17.17;;;;;;;1.57;92.69;94758.50;1752102;81;21090;-67
2022/12/16 04:00:28;;;;;;;32.87;19.77;;;;;;;1.61;92.43;94766.28;1752669;81;21050;-67
2022/12/16 04:02:55;;;;;;;37.37;22.60;;;;;;;1.64;92.28;94766.31;1752348;81;21051;-67
2022/12/16 04:05:22;;;;;;;36.93;22.37;;;;;;;1.58;92.27;94768.88;1752558;81;21568;-67
2022/12/16 04:07:49;;;;;;;35.80;20.83;;;;;;;1.58;92.26;94760.22;1752959;81;21023;-68
2022/12/16 04:10:15;;;;;;;30.30;17.73;;;;;;;1.56;92.02;94774.50;1752168;81;21094;-68
2022/12/16 04:29:24;;;;;;;30.37;17.27;;;;;;;1.43;93.20;94751.95;1752351;81;21469;-68
2022/12/16 04:31:52;;;;;;;35.50;19.70;;;;;;;1.46;93.03;94769.73;1752470;81;21023;-68
2022/12/16 04:34:26;;;;;;;35.30;20.37;;;;;;;1.51;93.16;94758.02;1752307;82;21016;-68
